Sebastopol, California
Current Conditions -  °F | °C
As of 11:22 AM on Sunday 21 Dec 2014 (Local Time) from KSTS Reporting Station
Overcast Overcast  
Wind Chill: 59°   Ceiling: 400
Heat Index: 59°   Visibility: 7mi
Dew Point: 57°   Wind: 3mph
Humidity: 94%   Direction: 350°N
Pressure: 30.29"   Gusts: NA
Location:  38.4°N, 122.82°W
Report Text: KSTS 211922Z 35003KT 7SM OVC004 15/14 A3029 RMK AO2
Loading
Personal Weather Stations






























Interactive Weather Map New forecast layout! Learn more

10-Day Weather Forecast

Advertisements
Track Severe Weather on mobile